Time;durP1;ratioP1;P1;durP2;ratioP2;P2;SDS_P1;SDS_P2;PMS_P1;PMS_P2;Temp;Humidity;BMP_temperature;BMP_pressure;BME280_temperature;BME280_humidity;BME280_pressure;Samples;Min_cycle;Max_cycle;Signal;HPM_P1;HPM_P2
2021/09/08 00:01:39;;;;;;;;;16.33;16.33;;;;;21.43;48.27;101095.69;5080776;28;45263;-73
2021/09/08 00:04:04;;;;;;;;;15.67;15.67;;;;;21.40;48.56;101098.88;5080856;28;45271;-73
2021/09/08 00:06:29;;;;;;;;;18.33;18.33;;;;;21.33;48.77;101096.28;5078887;28;47025;-72
2021/09/08 00:08:55;;;;;;;;;17.33;16.00;;;;;21.25;48.82;101100.16;5080631;27;45911;-72
2021/09/08 00:11:20;;;;;;;;;15.33;15.33;;;;;21.15;49.34;101092.69;5080599;28;45334;-73
2021/09/08 00:13:46;;;;;;;;;17.67;15.67;;;;;21.09;49.38;101090.09;5079110;28;45395;-72
2021/09/08 00:16:12;;;;;;;;;19.33;17.33;;;;;21.01;49.53;101084.00;5080578;28;45405;-72
2021/09/08 00:18:38;;;;;;;;;18.67;17.67;;;;;20.93;50.12;101081.66;5080384;28;45546;-73
2021/09/08 00:21:03;;;;;;;;;17.50;16.50;;;;;20.86;50.06;101076.34;5080279;28;45243;-73
2021/09/08 00:23:28;;;;;;;;;18.33;18.33;;;;;20.78;50.43;101079.41;5080381;28;45265;-72
2021/09/08 00:25:54;;;;;;;;;16.67;16.67;;;;;20.70;50.11;101072.47;5080461;28;45428;-73
2021/09/08 00:28:19;;;;;;;;;18.00;17.00;;;;;20.62;50.93;101065.53;5080297;28;46058;-72
2021/09/08 00:30:45;;;;;;;;;18.00;18.00;;;;;20.61;51.01;101065.75;5068069;28;45247;-73
2021/09/08 00:33:10;;;;;;;;;14.67;14.67;;;;;20.57;51.22;101060.03;5060206;28;45428;-72
2021/09/08 00:35:35;;;;;;;;;16.33;16.00;;;;;20.53;51.46;101061.56;5058115;28;46186;-72
2021/09/08 00:38:01;;;;;;;;;15.33;15.33;;;;;20.45;51.13;101049.22;5059650;28;46245;-73
2021/09/08 00:40:26;;;;;;;;;15.67;15.67;;;;;20.38;51.65;101046.63;5059884;28;45208;-73
2021/09/08 00:42:51;;;;;;;;;17.67;16.33;;;;;20.35;51.74;101052.47;5060028;28;45151;-73
2021/09/08 00:45:18;;;;;;;;;19.67;19.00;;;;;20.30;52.06;101050.47;5059646;28;45271;-73
2021/09/08 00:47:43;;;;;;;;;17.00;15.00;;;;;20.27;52.06;101036.63;5059793;28;45274;-73
2021/09/08 00:50:09;;;;;;;;;17.00;17.00;;;;;20.24;52.21;101042.50;5058300;28;45339;-72
2021/09/08 00:52:37;;;;;;;;;20.00;18.67;;;;;20.22;52.68;101040.03;5059628;28;45438;-73
2021/09/08 00:55:04;;;;;;;;;18.67;17.00;;;;;20.13;52.51;101030.63;5059633;28;45314;-72
2021/09/08 00:57:32;;;;;;;;;17.67;17.67;;;;;20.07;52.39;101032.38;5059489;28;46192;-73
2021/09/08 00:59:57;;;;;;;;;17.33;17.00;;;;;19.98;52.92;101029.16;5059751;28;45252;-73
2021/09/08 01:02:23;;;;;;;;;16.00;16.00;;;;;19.93;53.18;101039.78;5059546;28;45248;-72
2021/09/08 01:04:48;;;;;;;;;19.33;18.00;;;;;19.87;53.10;101038.84;5059746;28;45186;-73
2021/09/08 01:07:13;;;;;;;;;19.67;19.67;;;;;19.86;52.96;101036.38;5059141;28;46152;-72
2021/09/08 01:09:39;;;;;;;;;20.33;18.67;;;;;19.83;52.81;101016.09;5059565;28;45330;-73
2021/09/08 01:12:04;;;;;;;;;16.00;16.00;;;;;19.86;52.82;101020.19;5059506;28;45508;-72
2021/09/08 01:14:30;;;;;;;;;23.33;21.33;;;;;19.88;53.12;101018.09;5059325;28;45301;-73
2021/09/08 01:16:57;;;;;;;;;21.67;18.67;;;;;19.87;53.30;101017.28;5059366;28;45875;-73
2021/09/08 01:19:24;;;;;;;;;18.00;16.67;;;;;19.88;53.22;101012.72;5059384;28;45315;-73
2021/09/08 01:21:50;;;;;;;;;19.33;19.00;;;;;19.86;53.62;101020.19;5057783;28;45253;-72
2021/09/08 01:24:16;;;;;;;;;21.33;19.33;;;;;19.84;53.82;101019.63;5059285;28;45452;-73
2021/09/08 01:26:43;;;;;;;;;17.67;16.33;;;;;19.79;53.88;101010.31;5059284;28;46616;-73
2021/09/08 01:29:09;;;;;;;;;22.67;21.33;;;;;19.79;53.51;101006.81;5058982;28;45359;-73
2021/09/08 01:31:36;;;;;;;;;18.00;18.00;;;;;19.79;53.47;101014.91;5078092;28;45330;-72
2021/09/08 01:34:02;;;;;;;;;23.00;21.33;;;;;19.76;53.95;101012.69;5079256;28;45373;-73
2021/09/08 01:36:27;;;;;;;;;21.00;20.00;;;;;19.72;54.00;101008.81;5079027;28;46310;-73
2021/09/08 01:38:53;;;;;;;;;20.00;20.00;;;;;19.68;54.13;101016.50;5079343;28;45314;-73
2021/09/08 01:41:18;;;;;;;;;16.33;15.33;;;;;19.64;54.39;101020.72;5079445;28;45300;-73
2021/09/08 01:43:45;;;;;;;;;19.67;18.00;;;;;19.56;54.39;101013.78;5079232;28;45236;-73
2021/09/08 01:46:20;;;;;;;;;19.33;17.33;;;;;19.48;54.16;101020.28;5078044;28;48042;-73
2021/09/08 01:48:46;;;;;;;;;22.67;22.33;;;;;19.43;54.95;101012.88;5079261;28;45310;-72
2021/09/08 01:51:12;;;;;;;;;20.00;20.00;;;;;19.39;54.97;101009.00;5079028;28;45315;-73
2021/09/08 01:53:38;;;;;;;;;20.33;19.00;;;;;19.37;54.86;101007.59;5077819;28;46990;-73
2021/09/08 01:56:04;;;;;;;;;20.00;20.00;;;;;19.34;55.42;101002.66;5079040;28;46278;-72
2021/09/08 01:58:31;;;;;;;;;17.33;17.33;;;;;19.29;55.15;100998.78;5079176;28;45364;-72
2021/09/08 02:00:56;;;;;;;;;19.67;19.67;;;;;19.28;55.14;100996.31;5080702;28;45566;-72
2021/09/08 02:03:22;;;;;;;;;20.33;19.33;;;;;19.29;55.65;100993.38;5081110;28;45350;-73
2021/09/08 02:05:48;;;;;;;;;19.00;18.00;;;;;19.32;55.52;100989.41;5082394;28;46342;-73
2021/09/08 02:08:13;;;;;;;;;20.00;20.00;;;;;19.33;55.13;100984.84;5082464;28;45306;-72
2021/09/08 02:10:39;;;;;;;;;21.00;18.67;;;;;19.34;54.92;100976.53;5082720;28;45223;-72
2021/09/08 02:13:05;;;;;;;;;22.00;20.67;;;;;19.32;55.00;100969.72;5082361;28;45153;-73
2021/09/08 02:15:31;;;;;;;;;22.00;21.33;;;;;19.36;55.38;100984.41;5082477;28;45225;-72
2021/09/08 02:17:56;;;;;;;;;23.00;22.00;;;;;19.35;55.32;100977.34;5082342;28;45199;-73
2021/09/08 02:20:22;;;;;;;;;22.00;21.00;;;;;19.36;55.67;100984.41;5082276;27;45260;-72
2021/09/08 02:22:47;;;;;;;;;20.67;18.67;;;;;19.34;55.84;100975.72;5082217;28;45286;-73
2021/09/08 02:25:13;;;;;;;;;18.67;18.67;;;;;19.29;56.10;100977.22;5082299;27;45204;-73
2021/09/08 02:27:39;;;;;;;;;21.67;21.67;;;;;19.28;56.27;100969.38;5082166;28;45393;-73
2021/09/08 02:30:05;;;;;;;;;18.00;18.00;;;;;19.28;55.72;100970.16;5075550;28;45365;-72
2021/09/08 02:32:31;;;;;;;;;19.33;19.00;;;;;19.25;55.75;100967.13;5061732;28;45464;-72
2021/09/08 02:34:56;;;;;;;;;20.67;20.33;;;;;19.24;55.81;100965.50;5061641;28;45527;-72
2021/09/08 02:37:22;;;;;;;;;20.00;20.00;;;;;19.22;55.78;100954.94;5061485;28;45296;-72
2021/09/08 02:39:48;;;;;;;;;24.67;24.67;;;;;19.18;55.88;100948.34;5062002;28;45627;-72
2021/09/08 02:42:13;;;;;;;;;22.00;21.33;;;;;19.16;56.02;100945.88;5061695;28;45263;-72
2021/09/08 02:44:39;;;;;;;;;24.33;22.67;;;;;19.15;56.06;100943.41;5061326;28;46082;-73
2021/09/08 02:47:05;;;;;;;;;23.33;23.33;;;;;19.14;56.10;100949.84;5061706;28;45255;-73
2021/09/08 02:49:30;;;;;;;;;19.33;19.33;;;;;19.15;56.33;100938.00;5060283;28;45260;-73
2021/09/08 02:51:55;;;;;;;;;21.00;21.00;;;;;19.16;56.07;100939.69;5061270;28;45233;-73
2021/09/08 02:54:21;;;;;;;;;24.33;24.33;;;;;19.15;56.28;100949.63;5060207;28;46168;-72
2021/09/08 02:56:46;;;;;;;;;23.00;23.00;;;;;19.11;56.48;100945.75;5061446;28;45263;-72
2021/09/08 02:59:11;;;;;;;;;17.00;17.00;;;;;19.08;56.44;100938.13;5061692;28;45262;-72
2021/09/08 03:01:37;;;;;;;;;25.00;23.67;;;;;19.06;56.56;100937.47;5061352;28;45516;-72
2021/09/08 03:04:02;;;;;;;;;21.33;21.33;;;;;19.02;56.42;100926.34;5061409;28;46018;-72
2021/09/08 03:06:27;;;;;;;;;19.67;19.67;;;;;19.03;57.01;100930.69;5061114;28;45158;-72
2021/09/08 03:08:53;;;;;;;;;20.33;20.33;;;;;19.02;56.42;100934.44;5060154;28;45300;-72
2021/09/08 03:11:18;;;;;;;;;19.00;17.00;;;;;19.02;56.70;100925.50;5061174;28;45505;-72
2021/09/08 03:13:44;;;;;;;;;21.33;21.00;;;;;19.00;56.62;100925.75;5060201;28;46048;-72
2021/09/08 03:16:09;;;;;;;;;20.67;20.67;;;;;18.99;56.72;100924.09;5061367;28;45354;-72
2021/09/08 03:18:34;;;;;;;;;24.33;23.00;;;;;19.00;56.63;100919.53;5061359;28;45342;-73
2021/09/08 03:21:00;;;;;;;;;24.00;19.67;;;;;18.99;57.00;100917.88;5060842;28;45279;-73
2021/09/08 03:23:25;;;;;;;;;21.33;20.33;;;;;19.01;56.86;100916.59;5060969;28;46318;-73
2021/09/08 03:25:50;;;;;;;;;22.00;22.00;;;;;19.01;56.83;100908.53;5061033;28;45330;-73
2021/09/08 03:28:16;;;;;;;;;21.67;20.67;;;;;18.99;57.16;100913.34;5061172;28;45487;-73
2021/09/08 03:30:41;;;;;;;;;24.00;23.00;;;;;18.99;56.75;100910.63;5072536;28;45277;-73
2021/09/08 03:33:06;;;;;;;;;22.00;21.00;;;;;18.98;56.72;100909.00;5081175;28;45292;-73
2021/09/08 03:35:32;;;;;;;;;27.33;26.33;;;;;18.99;57.30;100909.81;5080725;28;45272;-73
2021/09/08 03:37:57;;;;;;;;;23.00;22.33;;;;;18.99;57.23;100907.13;5081209;28;45294;-73
2021/09/08 03:40:23;;;;;;;;;27.33;25.67;;;;;18.96;56.94;100905.69;5079610;28;45511;-73
2021/09/08 03:42:48;;;;;;;;;23.00;21.67;;;;;18.92;57.05;100897.25;5079683;28;48198;-73
2021/09/08 03:45:14;;;;;;;;;23.00;22.33;;;;;18.86;57.19;100890.06;5080830;28;45235;-73
2021/09/08 03:47:40;;;;;;;;;21.33;21.33;;;;;18.84;57.53;100888.66;5081228;28;45177;-73
2021/09/08 03:50:07;;;;;;;;;20.67;20.33;;;;;18.84;57.66;100885.97;5080795;27;45409;-73
2021/09/08 03:52:33;;;;;;;;;23.00;20.67;;;;;18.82;57.65;100885.38;5080629;28;45335;-73
2021/09/08 03:54:58;;;;;;;;;25.33;25.33;;;;;18.82;57.63;100885.38;5080739;28;45174;-73
2021/09/08 03:57:23;;;;;;;;;25.67;24.00;;;;;18.84;57.60;100888.66;5079503;28;45388;-73
2021/09/08 03:59:49;;;;;;;;;22.00;21.67;;;;;18.84;57.50;100881.41;5080869;28;45472;-73
2021/09/08 04:02:14;;;;;;;;;22.67;21.00;;;;;18.86;57.68;100889.25;5080718;28;45436;-73
2021/09/08 04:04:40;;;;;;;;;21.00;21.00;;;;;18.83;57.70;100878.94;5080780;28;45309;-73
2021/09/08 04:07:05;;;;;;;;;26.00;23.67;;;;;18.82;58.63;100878.13;5080580;28;45381;-73
2021/09/08 04:09:31;;;;;;;;;21.67;21.33;;;;;18.76;58.23;100870.94;5080541;28;45350;-73
2021/09/08 04:11:56;;;;;;;;;27.33;26.67;;;;;18.76;57.81;100871.75;5080631;28;45279;-73
2021/09/08 04:14:21;;;;;;;;;25.67;24.33;;;;;18.72;58.25;100862.50;5080454;28;45296;-73
2021/09/08 04:16:47;;;;;;;;;26.67;24.33;;;;;18.55;58.28;100833.50;5080752;28;45238;-73
2021/09/08 04:19:12;;;;;;;;;24.33;22.00;;;;;18.64;58.12;100852.88;5080542;27;45248;-73
2021/09/08 04:21:37;;;;;;;;;24.00;23.33;;;;;18.59;58.54;100846.53;5078543;28;47592;-73
2021/09/08 04:24:03;;;;;;;;;24.00;24.00;;;;;18.55;58.78;100843.44;5080124;28;45296;-73
2021/09/08 04:26:28;;;;;;;;;23.67;23.00;;;;;18.53;58.65;100838.28;5080421;28;45185;-73
2021/09/08 04:28:54;;;;;;;;;22.67;22.67;;;;;18.52;58.90;100846.59;5080371;27;45513;-73
2021/09/08 04:31:19;;;;;;;;;23.67;23.67;;;;;18.46;58.74;100842.94;5063081;28;46121;-73
2021/09/08 04:33:45;;;;;;;;;21.33;21.33;;;;;18.35;59.22;100830.22;5059893;28;45134;-73
2021/09/08 04:36:10;;;;;;;;;26.33;23.67;;;;;18.41;59.03;100853.56;5058454;28;45241;-73
2021/09/08 04:38:37;;;;;;;;;25.33;25.33;;;;;18.38;58.94;100851.31;5059888;28;45487;-73
2021/09/08 04:41:03;;;;;;;;;25.33;25.33;;;;;18.35;59.23;100851.75;5059784;28;45516;-73
2021/09/08 04:43:29;;;;;;;;;27.67;25.67;;;;;18.36;59.46;100839.94;5059626;28;45169;-73
2021/09/08 04:45:55;;;;;;;;;25.00;24.67;;;;;18.33;59.60;100840.38;5060004;28;45305;-73
2021/09/08 04:48:20;;;;;;;;;24.00;24.00;;;;;18.29;60.54;100843.53;5058544;28;47064;-73
2021/09/08 04:50:46;;;;;;;;;25.33;24.00;;;;;18.24;59.49;100834.47;5059506;28;45670;-73
2021/09/08 04:53:11;;;;;;;;;23.33;22.33;;;;;18.24;59.83;100839.88;5059550;28;45275;-73
2021/09/08 04:55:37;;;;;;;;;26.00;26.00;;;;;18.23;59.83;100836.34;5059845;28;45299;-73
2021/09/08 04:58:02;;;;;;;;;29.00;26.67;;;;;18.22;60.03;100831.19;5059611;28;45426;-73
2021/09/08 05:00:27;;;;;;;;;25.00;22.00;;;;;18.25;59.66;100842.31;5059581;28;46001;-73
2021/09/08 05:02:53;;;;;;;;;27.00;23.00;;;;;18.22;60.24;100831.19;5059637;28;45353;-73
2021/09/08 05:05:18;;;;;;;;;26.67;25.67;;;;;18.22;60.03;100832.00;5059564;28;45287;-73
2021/09/08 05:07:44;;;;;;;;;28.67;28.33;;;;;18.20;59.52;100831.44;5059432;28;45414;-73
2021/09/08 05:10:09;;;;;;;;;22.67;21.33;;;;;18.17;60.28;100830.00;5059497;28;46016;-72
2021/09/08 05:12:35;;;;;;;;;22.00;22.00;;;;;18.12;60.22;100820.94;5059420;28;45223;-73
2021/09/08 05:15:01;;;;;;;;;28.67;27.00;;;;;18.15;60.62;100832.09;5059611;28;45288;-73
2021/09/08 05:17:27;;;;;;;;;25.00;23.67;;;;;18.18;59.89;100836.19;5058048;28;46014;-73
2021/09/08 05:19:52;;;;;;;;;20.67;20.00;;;;;18.21;60.43;100834.94;5059283;28;45399;-73
2021/09/08 05:22:18;;;;;;;;;26.33;25.00;;;;;18.17;60.62;100829.19;5057713;28;45309;-73
2021/09/08 05:24:43;;;;;;;;;26.67;25.00;;;;;18.20;60.48;100835.97;5058222;28;45341;-73
2021/09/08 05:27:09;;;;;;;;;22.33;22.33;;;;;18.17;60.29;100831.88;5059379;28;45460;-73
2021/09/08 05:29:34;;;;;;;;;27.67;24.67;;;;;18.17;60.47;100845.31;5061475;28;45603;-73
2021/09/08 05:31:59;;;;;;;;;28.33;25.00;;;;;18.12;60.41;100840.63;5079656;28;45304;-73
2021/09/08 05:34:25;;;;;;;;;23.67;22.67;;;;;18.09;60.96;100841.03;5079401;28;45419;-73
2021/09/08 05:36:50;;;;;;;;;31.67;26.33;;;;;18.08;60.68;100838.56;5080752;28;46712;-73
2021/09/08 05:39:16;;;;;;;;;24.00;24.00;;;;;18.08;61.41;100838.56;5083021;28;45884;-73
2021/09/08 05:41:41;;;;;;;;;23.33;22.33;;;;;18.07;61.51;100831.53;5082967;27;45390;-73
2021/09/08 05:44:07;;;;;;;;;21.33;20.00;;;;;18.02;61.44;100833.00;5081669;28;45503;-73
2021/09/08 05:46:32;;;;;;;;;26.67;26.33;;;;;18.03;61.41;100834.66;5082685;28;45480;-73
2021/09/08 05:48:57;;;;;;;;;21.33;21.33;;;;;18.02;60.96;100824.13;5082818;28;47013;-73
2021/09/08 05:51:23;;;;;;;;;25.00;23.33;;;;;18.04;61.66;100824.72;5082623;28;45334;-73
2021/09/08 05:53:48;;;;;;;;;29.67;26.67;;;;;18.05;61.61;100826.38;5074057;28;45874;-74
2021/09/08 05:56:13;;;;;;;;;23.67;23.67;;;;;18.04;61.50;100822.84;5061630;28;45461;-73
2021/09/08 05:58:39;;;;;;;;;24.33;24.00;;;;;18.05;62.14;100827.19;5061782;28;45351;-74
2021/09/08 06:01:04;;;;;;;;;24.00;24.00;;;;;18.07;61.99;100832.34;5062296;28;45248;-73
2021/09/08 06:03:30;;;;;;;;;28.00;26.67;;;;;18.07;62.03;100826.16;5062608;28;45266;-74
2021/09/08 06:05:55;;;;;;;;;25.67;24.00;;;;;18.08;61.54;100839.34;5062095;28;45263;-73
2021/09/08 06:08:20;;;;;;;;;25.33;24.67;;;;;18.13;61.88;100833.34;5062130;28;45301;-73
2021/09/08 06:10:46;;;;;;;;;26.00;25.67;;;;;18.19;61.39;100839.72;5061960;28;45294;-73
2021/09/08 06:13:11;;;;;;;;;24.33;24.00;;;;;18.26;61.72;100843.16;5060763;28;45304;-73
2021/09/08 06:15:37;;;;;;;;;23.33;22.67;;;;;18.29;61.38;100840.81;5062274;28;45601;-73
2021/09/08 06:18:04;;;;;;;;;24.00;23.67;;;;;18.30;60.93;100830.91;5060518;28;47020;-76
2021/09/08 06:20:29;;;;;;;;;25.33;25.33;;;;;18.38;60.91;100832.47;5061938;28;45491;-72
2021/09/08 06:22:55;;;;;;;;;28.00;27.00;;;;;18.39;61.22;100837.63;5061669;28;45300;-72
2021/09/08 06:25:21;;;;;;;;;25.00;25.00;;;;;18.49;60.95;100838.94;5061983;28;45638;-75
2021/09/08 06:27:46;;;;;;;;;26.00;25.67;;;;;18.55;60.97;100835.38;5061852;28;46495;-74
2021/09/08 06:30:12;;;;;;;;;23.00;23.00;;;;;18.61;61.38;100833.63;5061633;28;45314;-73
2021/09/08 06:32:37;;;;;;;;;27.33;25.33;;;;;18.66;61.27;100823.03;5062036;28;45315;-73
2021/09/08 06:35:03;;;;;;;;;30.33;27.00;;;;;18.67;61.31;100824.66;5061433;28;45225;-74
2021/09/08 06:37:28;;;;;;;;;22.67;21.67;;;;;18.72;60.53;100819.44;5061675;28;46799;-72
2021/09/08 06:39:54;;;;;;;;;22.67;20.67;;;;;18.78;60.53;100813.16;5061808;28;45205;-73
2021/09/08 06:42:20;;;;;;;;;30.67;28.33;;;;;18.86;60.13;100824.66;5060557;28;45337;-73
2021/09/08 06:44:49;;;;;;;;;28.00;27.67;;;;;18.91;60.26;100812.13;5061036;28;45879;-73
2021/09/08 06:47:14;;;;;;;;;27.67;27.00;;;;;18.98;60.15;100811.22;5061372;28;45428;-73
2021/09/08 06:49:40;;;;;;;;;29.33;27.00;;;;;19.07;60.19;100817.09;5060995;28;45316;-73
2021/09/08 06:52:05;;;;;;;;;24.00;23.00;;;;;19.15;59.74;100814.09;5058875;28;45457;-73
2021/09/08 06:54:31;;;;;;;;;26.00;26.00;;;;;19.22;59.83;100801.38;5058921;28;46762;-73
2021/09/08 06:56:56;;;;;;;;;27.67;26.00;;;;;19.25;59.53;100795.50;5060806;28;45879;-72
2021/09/08 06:59:21;;;;;;;;;22.00;22.00;;;;;19.33;59.44;100797.03;5061820;28;45378;-74
2021/09/08 07:01:48;;;;;;;;;26.33;24.67;;;;;19.39;59.30;100800.69;5061538;28;45397;-73
2021/09/08 07:04:14;;;;;;;;;20.33;19.67;;;;;19.41;59.13;100780.56;5061489;28;45331;-73
2021/09/08 07:06:39;;;;;;;;;24.00;23.00;;;;;19.49;59.34;100781.25;5060901;28;46110;-73
2021/09/08 07:09:04;;;;;;;;;22.33;22.33;;;;;19.57;59.41;100785.50;5061480;28;45264;-73
2021/09/08 07:11:30;;;;;;;;;26.33;24.67;;;;;19.63;59.67;100788.06;5060842;28;45655;-71
2021/09/08 07:13:55;;;;;;;;;24.33;24.33;;;;;19.69;59.66;100780.91;5059574;28;46079;-72
2021/09/08 07:16:20;;;;;;;;;23.00;22.33;;;;;19.79;59.50;100783.81;5060341;28;45244;-72
2021/09/08 07:18:46;;;;;;;;;26.33;25.33;;;;;19.90;59.30;100784.06;5060709;28;45471;-71
2021/09/08 07:21:11;;;;;;;;;27.00;25.67;;;;;19.93;58.95;100779.03;5061001;28;45853;-72
2021/09/08 07:23:36;;;;;;;;;21.00;20.67;;;;;20.04;58.91;100784.66;5061087;28;45198;-71
2021/09/08 07:26:03;;;;;;;;;21.33;21.33;;;;;20.12;59.13;100781.63;5060936;28;45342;-73
2021/09/08 07:28:28;;;;;;;;;21.00;21.00;;;;;20.18;58.63;100785.22;5061106;28;45343;-73
2021/09/08 07:30:54;;;;;;;;;24.00;24.00;;;;;20.26;58.51;100792.94;5074304;28;45539;-72
2021/09/08 07:33:20;;;;;;;;;25.00;24.67;;;;;20.34;58.81;100801.72;5081177;28;45358;-73
2021/09/08 07:35:47;;;;;;;;;25.00;24.00;;;;;20.38;58.02;100803.72;5080566;28;45326;-73
2021/09/08 07:38:17;;;;;;;;;26.33;26.33;;;;;20.46;58.23;100793.59;5044699;28;45339;-72
2021/09/08 07:40:43;;;;;;;;;20.00;19.67;;;;;20.55;58.95;100803.78;5058739;28;45343;-74
2021/09/08 07:43:08;;;;;;;;;19.00;18.33;;;;;20.58;58.63;100797.09;5059390;28;45505;-74
2021/09/08 07:45:34;;;;;;;;;24.67;24.33;;;;;20.63;58.90;100796.38;5058938;28;47117;-73
2021/09/08 07:47:59;;;;;;;;;24.67;23.00;;;;;20.66;58.62;100796.72;5060678;28;45350;-72
2021/09/08 07:50:25;;;;;;;;;20.67;19.67;;;;;20.69;58.64;100796.22;5060618;28;45917;-74
2021/09/08 07:52:50;;;;;;;;;23.67;23.67;;;;;20.77;58.33;100789.59;5059059;28;46137;-74
2021/09/08 07:55:17;;;;;;;;;24.67;24.67;;;;;20.83;58.15;100787.81;5059145;28;46100;-74
2021/09/08 07:57:42;;;;;;;;;19.00;17.67;;;;;20.87;57.97;100780.88;5060220;28;45326;-73
2021/09/08 08:00:08;;;;;;;;;21.67;21.33;;;;;20.93;57.92;100784.53;5059772;28;45327;-74
2021/09/08 08:02:50;;;;;;;;;20.67;20.00;;;;;21.01;57.85;100791.41;5059550;28;45433;-74
2021/09/08 08:05:17;;;;;;;;;21.00;20.67;;;;;21.06;57.86;100791.50;5059507;28;45857;-74
2021/09/08 08:07:45;;;;;;;;;21.00;19.67;;;;;21.12;57.37;100785.13;5060041;28;45281;-74
2021/09/08 08:10:11;;;;;;;;;22.33;21.67;;;;;21.20;57.35;100786.59;5060567;28;45287;-75
2021/09/08 08:12:36;;;;;;;;;27.67;26.67;;;;;21.27;57.53;100783.72;5059017;28;45520;-75
2021/09/08 08:15:03;;;;;;;;;25.33;22.33;;;;;21.34;57.20;100784.38;5059328;28;45238;-74
2021/09/08 08:17:29;;;;;;;;;21.00;19.67;;;;;21.39;57.33;100781.78;5060089;28;45404;-74
2021/09/08 08:19:54;;;;;;;;;25.33;25.33;;;;;21.49;57.02;100796.53;5060020;28;45252;-74
2021/09/08 08:22:19;;;;;;;;;22.00;22.00;;;;;21.55;57.11;100790.94;5059994;28;45543;-74
2021/09/08 08:24:45;;;;;;;;;24.00;23.33;;;;;21.62;57.35;100790.78;5058325;28;48129;-75
2021/09/08 08:27:11;;;;;;;;;21.33;21.00;;;;;21.69;56.73;100782.47;5059294;28;45260;-74
2021/09/08 08:29:36;;;;;;;;;25.33;25.33;;;;;21.70;56.86;100773.31;5061416;28;45450;-75
2021/09/08 08:32:02;;;;;;;;;23.67;23.33;;;;;21.79;56.59;100784.56;5059532;28;45346;-75
2021/09/08 08:34:28;;;;;;;;;21.67;20.67;;;;;21.86;57.07;100777.06;5059754;28;45327;-74
2021/09/08 08:36:53;;;;;;;;;23.33;22.00;;;;;21.93;56.55;100782.28;5059655;28;45248;-75
2021/09/08 08:39:19;;;;;;;;;22.67;22.33;;;;;22.00;56.74;100782.13;5058459;28;45337;-73
2021/09/08 08:41:45;;;;;;;;;23.00;22.00;;;;;22.04;56.31;100780.53;5059370;28;45480;-76
2021/09/08 08:44:10;;;;;;;;;20.00;19.33;;;;;22.13;56.35;100791.75;5059412;28;46118;-73
2021/09/08 08:46:36;;;;;;;;;21.33;21.33;;;;;22.20;56.23;100786.97;5059859;28;45261;-73
2021/09/08 08:49:03;;;;;;;;;24.67;23.67;;;;;22.25;56.87;100784.34;5059922;28;45148;-74
2021/09/08 08:51:28;;;;;;;;;25.33;22.00;;;;;22.29;56.28;100780.03;5059399;28;45457;-74
2021/09/08 08:53:54;;;;;;;;;25.00;23.00;;;;;22.36;56.12;100777.16;5059529;28;46139;-74
2021/09/08 08:56:20;;;;;;;;;19.00;19.00;;;;;22.42;56.10;100778.03;5059679;28;45318;-74
2021/09/08 08:58:45;;;;;;;;;24.00;23.33;;;;;22.42;56.18;100775.31;5059876;28;45369;-75
2021/09/08 09:01:22;;;;;;;;;22.00;20.33;;;;;22.48;56.20;100773.50;5058151;28;45790;-74
2021/09/08 09:04:02;;;;;;;;;24.67;24.67;;;;;22.55;56.51;100774.09;5059510;28;45374;-74
2021/09/08 09:06:28;;;;;;;;;22.67;22.33;;;;;22.57;56.17;100772.78;5058651;28;45335;-72
2021/09/08 09:09:06;;;;;;;;;22.67;22.00;;;;;22.60;55.49;100763.38;5059037;28;45359;-76
2021/09/08 09:11:32;;;;;;;;;22.67;22.00;;;;;22.68;56.13;100764.78;5061796;28;45460;-76
2021/09/08 09:13:59;;;;;;;;;20.67;20.67;;;;;22.72;56.46;100755.09;5062963;28;45313;-75
2021/09/08 09:16:28;;;;;;;;;24.33;21.33;;;;;22.80;55.55;100742.94;5062244;28;45342;-76
2021/09/08 09:18:54;;;;;;;;;66.25;49.75;;;;;22.87;55.74;100742.75;5061546;28;45316;-75
2021/09/08 09:21:23;;;;;;;;;73.25;64.00;;;;;22.93;55.91;100741.72;5062386;28;45512;-76
2021/09/08 09:23:51;;;;;;;;;23.00;23.00;;;;;22.99;55.75;100732.56;5062979;28;45352;-74
2021/09/08 09:26:36;;;;;;;;;46.67;38.67;;;;;23.05;55.37;100745.06;5062850;28;45276;-73
2021/09/08 09:29:04;;;;;;;;;38.33;33.00;;;;;23.15;54.98;100738.09;5062969;28;45925;-74
2021/09/08 09:31:30;;;;;;;;;25.67;23.67;;;;;23.18;55.48;100732.97;5079744;28;46206;-74
2021/09/08 09:33:57;;;;;;;;;42.00;36.33;;;;;23.27;55.38;100736.03;5082728;28;45498;-76
2021/09/08 09:36:31;;;;;;;;;26.00;24.67;;;;;23.38;54.77;100726.09;5057342;28;46017;-75
2021/09/08 09:38:57;;;;;;;;;22.33;22.00;;;;;23.45;54.70;100731.28;5061138;28;45419;-75
2021/09/08 09:41:26;;;;;;;;;25.00;22.67;;;;;23.56;55.16;100727.53;5060610;28;45378;-74
2021/09/08 09:43:51;;;;;;;;;24.67;24.67;;;;;23.67;54.61;100733.84;5062122;28;45236;-75
2021/09/08 09:46:17;;;;;;;;;26.33;24.33;;;;;23.77;54.41;100724.97;5062226;28;45244;-75
2021/09/08 09:48:43;;;;;;;;;22.00;21.67;;;;;23.87;54.74;100726.91;5062708;28;45309;-73
2021/09/08 09:51:11;;;;;;;;;25.33;24.33;;;;;23.98;53.91;100725.06;5060884;28;45269;-73
2021/09/08 09:53:36;;;;;;;;;73.25;64.00;;;;;24.07;53.95;100723.44;5062038;28;46078;-75
2021/09/08 09:56:02;;;;;;;;;69.00;54.00;;;;;24.17;53.83;100719.16;5061231;28;45338;-74
2021/09/08 09:58:27;;;;;;;;;23.67;23.67;;;;;24.28;53.65;100718.13;5062149;28;45314;-75
2021/09/08 10:00:53;;;;;;;;;22.33;20.33;;;;;24.41;53.19;100719.50;5062083;28;45328;-75
2021/09/08 10:03:20;;;;;;;;;24.00;23.00;;;;;24.57;53.29;100723.06;5061196;28;45445;-76
2021/09/08 10:05:45;;;;;;;;;24.00;23.00;;;;;24.71;53.05;100722.53;5060001;28;45216;-74
2021/09/08 10:08:15;;;;;;;;;23.00;23.00;;;;;24.86;51.69;100718.19;5062068;28;45299;-74
2021/09/08 10:10:43;;;;;;;;;26.00;24.00;;;;;25.00;52.03;100715.75;5060163;28;46050;-74
2021/09/08 10:13:21;;;;;;;;;22.00;22.00;;;;;25.16;51.69;100711.94;5061100;28;46476;-74
2021/09/08 10:15:50;;;;;;;;;25.67;22.67;;;;;25.31;51.91;100710.28;5061866;28;45186;-74
2021/09/08 10:18:28;;;;;;;;;24.67;24.67;;;;;25.49;51.46;100706.16;5062243;28;45338;-74
2021/09/08 10:21:05;;;;;;;;;19.67;19.67;;;;;25.64;50.74;100697.19;5061370;28;45339;-74
2021/09/08 10:23:38;;;;;;;;;22.00;22.00;;;;;25.80;50.65;100706.09;5060499;28;46913;-73
2021/09/08 10:26:18;;;;;;;;;23.67;23.67;;;;;25.96;50.79;100698.69;5061562;28;45311;-74
2021/09/08 10:28:45;;;;;;;;;23.33;23.33;;;;;26.14;49.91;100711.94;5063071;28;45259;-75
2021/09/08 10:31:14;;;;;;;;;23.00;23.00;;;;;26.29;50.10;100702.84;5061726;28;45321;-74
2021/09/08 10:33:41;;;;;;;;;21.33;20.33;;;;;26.43;49.11;100697.63;5060420;28;47860;-80
2021/09/08 10:36:11;;;;;;;;;21.67;21.67;;;;;26.60;49.31;100703.50;5057409;28;45824;-76
2021/09/08 10:38:37;;;;;;;;;24.00;23.33;;;;;26.76;48.79;100692.47;5062710;28;45394;-75
2021/09/08 10:41:04;;;;;;;;;24.33;23.67;;;;;26.87;48.77;100687.72;5062686;28;45219;-75
2021/09/08 10:43:35;;;;;;;;;24.67;23.00;;;;;27.01;48.78;100687.91;5060702;28;46398;-76
2021/09/08 10:46:03;;;;;;;;;22.33;22.00;;;;;27.13;48.38;100684.78;5062295;28;45381;-78
2021/09/08 10:48:45;;;;;;;;;22.67;22.67;;;;;27.27;48.43;100682.22;5062581;28;45385;-77
2021/09/08 10:51:10;;;;;;;;;20.33;20.33;;;;;27.39;47.96;100690.00;5064036;28;45321;-76
2021/09/08 10:53:38;;;;;;;;;24.00;23.00;;;;;27.49;47.40;100689.06;5062046;28;47169;-75
2021/09/08 10:56:06;;;;;;;;;22.00;22.00;;;;;27.64;48.02;100695.41;5064543;28;45362;-76
2021/09/08 10:58:57;;;;;;;;;23.33;22.33;;;;;27.75;47.19;100693.41;5061690;28;45337;-74
2021/09/08 11:01:24;;;;;;;;;23.67;23.00;;;;;27.80;46.90;100691.44;5061107;28;45323;-75
2021/09/08 11:03:50;;;;;;;;;20.00;20.00;;;;;27.90;47.35;100686.94;5061196;28;45319;-75
2021/09/08 11:06:15;;;;;;;;;19.00;19.00;;;;;28.00;47.06;100692.28;5059348;28;45295;-77